sensor_id;sensor_type;location;lat;lon;timestamp;pressure;altitude;pressure_sealevel;temperature;humidity
21401;BME280;18038;50.166;18.908;2023-04-25T00:00:28;96939.34;;;8.67;82.28
21401;BME280;18038;50.166;18.908;2023-04-25T00:03:34;96926.44;;;8.71;82.22
21401;BME280;18038;50.166;18.908;2023-04-25T00:06:42;96930.94;;;8.77;82.14
21401;BME280;18038;50.166;18.908;2023-04-25T00:09:48;96936.88;;;8.72;81.62
21401;BME280;18038;50.166;18.908;2023-04-25T00:12:55;96940.19;;;8.61;82.14
21401;BME280;18038;50.166;18.908;2023-04-25T00:16:09;96936.31;;;8.50;83.35
21401;BME280;18038;50.166;18.908;2023-04-25T00:19:18;96934.88;;;8.54;83.31
21401;BME280;18038;50.166;18.908;2023-04-25T00:22:31;96939.78;;;8.58;83.00
21401;BME280;18038;50.166;18.908;2023-04-25T00:25:40;96936.69;;;8.61;83.05
21401;BME280;18038;50.166;18.908;2023-04-25T00:28:47;96932.78;;;8.63;83.32
21401;BME280;18038;50.166;18.908;2023-04-25T00:31:57;96932.78;;;8.63;82.55
21401;BME280;18038;50.166;18.908;2023-04-25T00:35:10;96934.88;;;8.61;82.76
21401;BME280;18038;50.166;18.908;2023-04-25T00:38:18;96931.16;;;8.55;82.75
21401;BME280;18038;50.166;18.908;2023-04-25T00:41:25;96936.13;;;8.45;83.88
21401;BME280;18038;50.166;18.908;2023-04-25T00:44:43;96933.47;;;8.39;83.35
21401;BME280;18038;50.166;18.908;2023-04-25T00:47:54;96936.94;;;8.46;83.05
21401;BME280;18038;50.166;18.908;2023-04-25T00:51:02;96936.31;;;8.50;83.21
21401;BME280;18038;50.166;18.908;2023-04-25T00:54:09;96936.56;;;8.36;83.10
21401;BME280;18038;50.166;18.908;2023-04-25T00:57:16;96940.84;;;8.30;82.89
21401;BME280;18038;50.166;18.908;2023-04-25T01:00:23;96931.66;;;8.19;82.96
21401;BME280;18038;50.166;18.908;2023-04-25T01:03:33;96933.28;;;8.07;83.47
21401;BME280;18038;50.166;18.908;2023-04-25T01:06:44;96938.19;;;8.23;83.39
21401;BME280;18038;50.166;18.908;2023-04-25T01:09:51;96939.84;;;8.24;81.82
21401;BME280;18038;50.166;18.908;2023-04-25T01:12:57;96941.88;;;8.22;80.18
21401;BME280;18038;50.166;18.908;2023-04-25T01:16:09;96931.25;;;8.02;78.71
21401;BME280;18038;50.166;18.908;2023-04-25T01:19:18;96944.13;;;7.85;77.41
21401;BME280;18038;50.166;18.908;2023-04-25T01:22:31;96951.88;;;7.74;76.95
21401;BME280;18038;50.166;18.908;2023-04-25T01:25:38;96954.34;;;7.75;76.74
21401;BME280;18038;50.166;18.908;2023-04-25T01:28:47;96955.75;;;7.64;76.67
21401;BME280;18038;50.166;18.908;2023-04-25T01:31:56;96962.94;;;7.64;76.90
21401;BME280;18038;50.166;18.908;2023-04-25T01:35:06;96957.19;;;7.54;76.70
21401;BME280;18038;50.166;18.908;2023-04-25T01:38:16;96961.25;;;7.50;76.53
21401;BME280;18038;50.166;18.908;2023-04-25T01:41:24;96959.19;;;7.38;76.83
21401;BME280;18038;50.166;18.908;2023-04-25T01:44:30;96960.00;;;7.39;77.46
21401;BME280;18038;50.166;18.908;2023-04-25T01:47:37;96962.22;;;7.35;77.34
21401;BME280;18038;50.166;18.908;2023-04-25T01:50:47;96955.06;;;7.36;78.05
21401;BME280;18038;50.166;18.908;2023-04-25T01:53:57;96964.09;;;7.41;78.10
21401;BME280;18038;50.166;18.908;2023-04-25T01:57:04;96966.19;;;7.53;77.30
21401;BME280;18038;50.166;18.908;2023-04-25T02:00:13;96969.22;;;7.50;77.40
21401;BME280;18038;50.166;18.908;2023-04-25T02:03:35;96964.13;;;7.48;77.34
21401;BME280;18038;50.166;18.908;2023-04-25T02:06:52;96968.75;;;7.33;78.28
21401;BME280;18038;50.166;18.908;2023-04-25T02:10:07;96971.88;;;7.43;78.36
21401;BME280;18038;50.166;18.908;2023-04-25T02:13:35;96976.97;;;7.44;78.14
21401;BME280;18038;50.166;18.908;2023-04-25T02:17:06;96982.19;;;7.31;78.42
21401;BME280;18038;50.166;18.908;2023-04-25T02:20:14;96973.50;;;7.37;78.66
21401;BME280;18038;50.166;18.908;2023-04-25T02:23:33;96979.13;;;7.21;77.28
21401;BME280;18038;50.166;18.908;2023-04-25T02:26:42;96978.50;;;7.19;77.48
21401;BME280;18038;50.166;18.908;2023-04-25T02:29:53;96979.50;;;7.11;77.64
21401;BME280;18038;50.166;18.908;2023-04-25T02:33:00;96980.66;;;7.02;78.24
21401;BME280;18038;50.166;18.908;2023-04-25T02:36:12;96979.09;;;6.73;78.82
21401;BME280;18038;50.166;18.908;2023-04-25T02:39:19;96984.03;;;6.76;77.95
21401;BME280;18038;50.166;18.908;2023-04-25T02:42:30;96981.94;;;6.71;78.47
21401;BME280;18038;50.166;18.908;2023-04-25T02:45:37;96983.31;;;6.61;78.51
21401;BME280;18038;50.166;18.908;2023-04-25T02:48:44;96987.22;;;6.65;78.59
21401;BME280;18038;50.166;18.908;2023-04-25T02:51:51;96980.91;;;6.66;78.35
21401;BME280;18038;50.166;18.908;2023-04-25T02:54:57;96979.06;;;6.66;78.19
21401;BME280;18038;50.166;18.908;2023-04-25T02:58:07;96990.88;;;6.64;78.26
21401;BME280;18038;50.166;18.908;2023-04-25T03:01:23;96983.50;;;6.59;78.77
21401;BME280;18038;50.166;18.908;2023-04-25T03:04:30;96985.75;;;6.62;78.28
21401;BME280;18038;50.166;18.908;2023-04-25T03:07:39;96981.06;;;6.58;77.35
21401;BME280;18038;50.166;18.908;2023-04-25T03:10:47;96984.72;;;6.56;77.17
21401;BME280;18038;50.166;18.908;2023-04-25T03:13:58;96973.91;;;6.58;77.49
21401;BME280;18038;50.166;18.908;2023-04-25T03:17:05;96974.72;;;6.59;76.92
21401;BME280;18038;50.166;18.908;2023-04-25T03:20:12;96970.06;;;6.67;76.51
21401;BME280;18038;50.166;18.908;2023-04-25T03:23:19;96976.81;;;6.63;75.81
21401;BME280;18038;50.166;18.908;2023-04-25T03:26:28;96990.31;;;6.40;75.70
21401;BME280;18038;50.166;18.908;2023-04-25T03:29:38;96985.97;;;6.61;76.20
21401;BME280;18038;50.166;18.908;2023-04-25T03:32:44;96988.06;;;6.65;75.91
21401;BME280;18038;50.166;18.908;2023-04-25T03:35:53;96981.91;;;6.65;75.40
21401;BME280;18038;50.166;18.908;2023-04-25T03:38:59;96993.94;;;6.61;75.18
21401;BME280;18038;50.166;18.908;2023-04-25T03:42:07;96995.97;;;6.59;75.19
21401;BME280;18038;50.166;18.908;2023-04-25T03:45:16;96993.56;;;6.70;75.26
21401;BME280;18038;50.166;18.908;2023-04-25T03:48:23;96998.28;;;6.75;74.86
21401;BME280;18038;50.166;18.908;2023-04-25T03:51:31;97003.59;;;6.75;74.57
21401;BME280;18038;50.166;18.908;2023-04-25T03:54:38;96994.41;;;6.71;74.40
21401;BME280;18038;50.166;18.908;2023-04-25T03:57:48;97002.41;;;6.77;74.23
21401;BME280;18038;50.166;18.908;2023-04-25T04:00:58;97003.59;;;6.75;73.74
21401;BME280;18038;50.166;18.908;2023-04-25T04:04:07;97007.75;;;6.84;73.60
21401;BME280;18038;50.166;18.908;2023-04-25T04:07:15;97007.06;;;6.75;73.37
21401;BME280;18038;50.166;18.908;2023-04-25T04:10:25;97019.34;;;6.76;73.85
21401;BME280;18038;50.166;18.908;2023-04-25T04:13:32;97012.03;;;6.85;73.52
21401;BME280;18038;50.166;18.908;2023-04-25T04:16:41;97020.31;;;6.69;73.29
21401;BME280;18038;50.166;18.908;2023-04-25T04:19:48;97024.75;;;6.62;73.41
21401;BME280;18038;50.166;18.908;2023-04-25T04:22:55;97029.91;;;6.70;73.00
21401;BME280;18038;50.166;18.908;2023-04-25T04:26:02;97026.50;;;6.76;72.93
21401;BME280;18038;50.166;18.908;2023-04-25T04:29:19;97020.00;;;6.85;72.53
21401;BME280;18038;50.166;18.908;2023-04-25T04:32:44;97026.56;;;6.89;72.17
21401;BME280;18038;50.166;18.908;2023-04-25T04:35:52;97026.56;;;6.89;72.63
21401;BME280;18038;50.166;18.908;2023-04-25T04:39:00;97027.22;;;6.98;72.52
21401;BME280;18038;50.166;18.908;2023-04-25T04:42:19;97028.25;;;7.04;72.03
21401;BME280;18038;50.166;18.908;2023-04-25T04:45:37;97027.50;;;7.16;71.85
21401;BME280;18038;50.166;18.908;2023-04-25T04:49:07;97030.34;;;7.15;70.88
21401;BME280;18038;50.166;18.908;2023-04-25T04:52:51;97027.06;;;7.06;71.43
21401;BME280;18038;50.166;18.908;2023-04-25T04:56:18;97021.75;;;7.13;71.55
21401;BME280;18038;50.166;18.908;2023-04-25T04:59:47;97028.91;;;7.12;71.38
21401;BME280;18038;50.166;18.908;2023-04-25T05:03:17;97026.94;;;7.21;70.80
21401;BME280;18038;50.166;18.908;2023-04-25T05:06:47;97021.38;;;7.16;70.49
21401;BME280;18038;50.166;18.908;2023-04-25T05:10:07;97029.59;;;7.21;71.75
21401;BME280;18038;50.166;18.908;2023-04-25T05:13:33;97027.69;;;7.15;71.14
21401;BME280;18038;50.166;18.908;2023-04-25T05:17:14;97024.06;;;7.22;70.17
21401;BME280;18038;50.166;18.908;2023-04-25T05:20:46;97021.44;;;7.29;70.73
21401;BME280;18038;50.166;18.908;2023-04-25T05:24:04;97018.88;;;7.42;68.67
21401;BME280;18038;50.166;18.908;2023-04-25T05:27:30;97018.31;;;7.67;67.57
21401;BME280;18038;50.166;18.908;2023-04-25T05:31:04;97016.50;;;7.74;66.67
21401;BME280;18038;50.166;18.908;2023-04-25T05:34:22;97029.41;;;7.97;67.02
21401;BME280;18038;50.166;18.908;2023-04-25T05:37:32;97030.66;;;8.08;65.48
21401;BME280;18038;50.166;18.908;2023-04-25T05:40:48;97026.34;;;7.94;65.39
21401;BME280;18038;50.166;18.908;2023-04-25T05:44:27;97024.75;;;8.06;65.40
21401;BME280;18038;50.166;18.908;2023-04-25T05:47:50;97016.94;;;7.84;64.88
21401;BME280;18038;50.166;18.908;2023-04-25T05:51:11;97022.06;;;7.93;63.61
21401;BME280;18038;50.166;18.908;2023-04-25T05:54:26;97026.97;;;7.96;63.42
21401;BME280;18038;50.166;18.908;2023-04-25T05:57:35;97025.09;;;7.83;64.06
21401;BME280;18038;50.166;18.908;2023-04-25T06:00:45;97022.06;;;7.93;63.88
21401;BME280;18038;50.166;18.908;2023-04-25T06:03:52;97025.72;;;7.92;63.55
21401;BME280;18038;50.166;18.908;2023-04-25T06:07:00;97031.88;;;8.05;63.34
21401;BME280;18038;50.166;18.908;2023-04-25T06:10:08;97031.06;;;7.98;63.45
21401;BME280;18038;50.166;18.908;2023-04-25T06:13:21;97034.75;;;8.04;63.31
21401;BME280;18038;50.166;18.908;2023-04-25T06:16:35;97034.16;;;8.08;62.78
21401;BME280;18038;50.166;18.908;2023-04-25T06:19:42;97033.97;;;8.17;63.54
21401;BME280;18038;50.166;18.908;2023-04-25T06:22:48;97042.16;;;8.22;63.01
21401;BME280;18038;50.166;18.908;2023-04-25T06:25:57;97042.50;;;7.85;63.14
21401;BME280;18038;50.166;18.908;2023-04-25T06:29:08;97040.88;;;7.91;63.50
21401;BME280;18038;50.166;18.908;2023-04-25T06:32:15;97038.03;;;8.13;62.68
21401;BME280;18038;50.166;18.908;2023-04-25T06:35:22;97045.41;;;8.17;62.47
21401;BME280;18038;50.166;18.908;2023-04-25T06:38:29;97046.59;;;8.08;61.85
21401;BME280;18038;50.166;18.908;2023-04-25T06:41:35;97043.78;;;8.16;61.75
21401;BME280;18038;50.166;18.908;2023-04-25T06:45:14;97041.09;;;7.96;62.24
21401;BME280;18038;50.166;18.908;2023-04-25T06:48:21;97038.41;;;7.89;62.40
21401;BME280;18038;50.166;18.908;2023-04-25T06:51:28;97039.84;;;8.05;61.92
21401;BME280;18038;50.166;18.908;2023-04-25T06:54:35;97037.84;;;8.14;61.81
21401;BME280;18038;50.166;18.908;2023-04-25T06:57:54;97041.28;;;8.08;61.26
21401;BME280;18038;50.166;18.908;2023-04-25T07:01:38;97035.59;;;8.38;60.89
21401;BME280;18038;50.166;18.908;2023-04-25T07:04:54;97048.69;;;8.32;60.59
21401;BME280;18038;50.166;18.908;2023-04-25T07:08:02;97045.22;;;8.52;60.24
21401;BME280;18038;50.166;18.908;2023-04-25T07:11:09;97039.28;;;8.30;59.81
21401;BME280;18038;50.166;18.908;2023-04-25T07:14:20;97038.66;;;8.41;60.49
21401;BME280;18038;50.166;18.908;2023-04-25T07:17:33;97039.66;;;8.80;60.29
21401;BME280;18038;50.166;18.908;2023-04-25T07:20:50;97033.94;;;8.96;59.60
21401;BME280;18038;50.166;18.908;2023-04-25T07:23:59;97032.38;;;9.34;59.03
21401;BME280;18038;50.166;18.908;2023-04-25T07:27:13;97031.28;;;9.48;58.32
21401;BME280;18038;50.166;18.908;2023-04-25T07:30:31;97042.66;;;9.30;57.56
21401;BME280;18038;50.166;18.908;2023-04-25T07:33:41;97045.84;;;9.46;58.59
21401;BME280;18038;50.166;18.908;2023-04-25T07:36:48;97042.41;;;9.38;57.29
21401;BME280;18038;50.166;18.908;2023-04-25T07:39:54;97038.13;;;9.31;57.75
21401;BME280;18038;50.166;18.908;2023-04-25T07:43:01;97035.22;;;9.39;57.21
21401;BME280;18038;50.166;18.908;2023-04-25T07:46:19;97044.66;;;9.35;57.46
21401;BME280;18038;50.166;18.908;2023-04-25T07:49:30;97050.44;;;9.77;56.24
21401;BME280;18038;50.166;18.908;2023-04-25T07:52:39;97040.84;;;10.01;55.16
21401;BME280;18038;50.166;18.908;2023-04-25T07:56:03;97047.28;;;10.75;53.23
21401;BME280;18038;50.166;18.908;2023-04-25T07:59:13;97052.44;;;10.95;51.49
21401;BME280;18038;50.166;18.908;2023-04-25T08:02:20;97048.03;;;11.07;52.67
21401;BME280;18038;50.166;18.908;2023-04-25T08:05:31;97049.13;;;11.18;49.87
21401;BME280;18038;50.166;18.908;2023-04-25T08:08:41;97040.13;;;11.12;50.23
21401;BME280;18038;50.166;18.908;2023-04-25T08:11:52;97048.38;;;11.48;49.61
21401;BME280;18038;50.166;18.908;2023-04-25T08:15:05;97041.47;;;11.58;49.48
21401;BME280;18038;50.166;18.908;2023-04-25T08:18:14;97039.78;;;11.94;49.56
21401;BME280;18038;50.166;18.908;2023-04-25T08:21:26;97042.13;;;11.54;49.07
21401;BME280;18038;50.166;18.908;2023-04-25T08:24:35;97041.22;;;11.60;49.05
21401;BME280;18038;50.166;18.908;2023-04-25T08:27:47;97042.69;;;12.35;47.90
21401;BME280;18038;50.166;18.908;2023-04-25T08:30:56;97036.22;;;12.89;44.78
21401;BME280;18038;50.166;18.908;2023-04-25T08:34:10;97044.53;;;12.88;44.52
21401;BME280;18038;50.166;18.908;2023-04-25T08:37:28;97038.34;;;12.87;45.29
21401;BME280;18038;50.166;18.908;2023-04-25T08:40:44;97034.69;;;12.70;45.16
21401;BME280;18038;50.166;18.908;2023-04-25T08:43:56;97042.44;;;12.24;46.08
21401;BME280;18038;50.166;18.908;2023-04-25T08:47:07;97048.84;;;11.26;47.57
21401;BME280;18038;50.166;18.908;2023-04-25T08:50:23;97051.06;;;11.48;48.31
21401;BME280;18038;50.166;18.908;2023-04-25T08:53:36;97043.34;;;11.39;46.96
21401;BME280;18038;50.166;18.908;2023-04-25T08:56:48;97048.44;;;11.04;47.48
21401;BME280;18038;50.166;18.908;2023-04-25T08:59:57;97050.53;;;11.02;47.16
21401;BME280;18038;50.166;18.908;2023-04-25T09:03:07;97045.25;;;11.69;46.26
21401;BME280;18038;50.166;18.908;2023-04-25T09:06:14;97053.22;;;11.02;46.95
21401;BME280;18038;50.166;18.908;2023-04-25T09:09:27;97049.31;;;11.90;46.88
21401;BME280;18038;50.166;18.908;2023-04-25T09:12:37;97049.53;;;12.19;46.64
21401;BME280;18038;50.166;18.908;2023-04-25T09:15:48;97047.34;;;11.67;46.54
21401;BME280;18038;50.166;18.908;2023-04-25T09:19:21;97047.44;;;11.42;46.40
21401;BME280;18038;50.166;18.908;2023-04-25T09:22:49;97049.16;;;11.85;45.34
21401;BME280;18038;50.166;18.908;2023-04-25T09:26:14;97045.25;;;12.30;45.92
21401;BME280;18038;50.166;18.908;2023-04-25T09:29:29;97048.81;;;12.23;44.31
21401;BME280;18038;50.166;18.908;2023-04-25T09:32:38;97047.19;;;12.22;44.22
21401;BME280;18038;50.166;18.908;2023-04-25T09:35:44;97049.84;;;11.80;43.18
21401;BME280;18038;50.166;18.908;2023-04-25T09:39:19;97050.47;;;11.64;45.37
21401;BME280;18038;50.166;18.908;2023-04-25T09:42:41;97040.66;;;11.58;43.22
21401;BME280;18038;50.166;18.908;2023-04-25T09:45:50;97042.88;;;11.79;42.35
21401;BME280;18038;50.166;18.908;2023-04-25T09:49:06;97050.56;;;12.71;41.58
21401;BME280;18038;50.166;18.908;2023-04-25T09:52:23;97044.38;;;13.18;38.40
21401;BME280;18038;50.166;18.908;2023-04-25T09:55:38;97048.00;;;13.00;38.54
21401;BME280;18038;50.166;18.908;2023-04-25T09:58:50;97040.78;;;13.24;40.80
21401;BME280;18038;50.166;18.908;2023-04-25T10:01:59;97040.09;;;12.82;39.30
21401;BME280;18038;50.166;18.908;2023-04-25T10:05:12;97041.34;;;13.14;40.37
21401;BME280;18038;50.166;18.908;2023-04-25T10:08:20;97036.94;;;12.85;38.08
21401;BME280;18038;50.166;18.908;2023-04-25T10:11:30;97036.91;;;12.61;38.71
21401;BME280;18038;50.166;18.908;2023-04-25T10:14:40;97033.91;;;12.81;38.33
21401;BME280;18038;50.166;18.908;2023-04-25T10:17:49;97036.31;;;12.71;39.03
21401;BME280;18038;50.166;18.908;2023-04-25T10:20:59;97041.97;;;12.39;39.35
21401;BME280;18038;50.166;18.908;2023-04-25T10:24:07;97043.59;;;12.28;39.49
21401;BME280;18038;50.166;18.908;2023-04-25T10:27:16;97041.56;;;12.12;40.03
21401;BME280;18038;50.166;18.908;2023-04-25T10:30:25;97038.25;;;11.87;40.20
21401;BME280;18038;50.166;18.908;2023-04-25T10:33:36;97045.81;;;11.90;40.88
21401;BME280;18038;50.166;18.908;2023-04-25T10:36:50;97040.41;;;11.59;42.09
21401;BME280;18038;50.166;18.908;2023-04-25T10:40:08;97034.41;;;11.46;42.12
21401;BME280;18038;50.166;18.908;2023-04-25T10:43:34;97032.94;;;11.31;42.30
21401;BME280;18038;50.166;18.908;2023-04-25T10:46:45;97037.22;;;11.51;42.07
21401;BME280;18038;50.166;18.908;2023-04-25T10:49:52;97037.41;;;11.86;41.14
21401;BME280;18038;50.166;18.908;2023-04-25T10:53:14;97030.78;;;11.89;41.69
21401;BME280;18038;50.166;18.908;2023-04-25T10:56:22;97032.50;;;11.53;42.78
21401;BME280;18038;50.166;18.908;2023-04-25T10:59:30;97033.16;;;11.48;41.76
21401;BME280;18038;50.166;18.908;2023-04-25T11:02:47;97030.94;;;11.27;41.60
21401;BME280;18038;50.166;18.908;2023-04-25T11:05:56;97041.09;;;11.00;42.20
21401;BME280;18038;50.166;18.908;2023-04-25T11:09:11;97041.03;;;11.25;41.19
21401;BME280;18038;50.166;18.908;2023-04-25T11:12:18;97037.59;;;11.36;41.97
21401;BME280;18038;50.166;18.908;2023-04-25T11:15:26;97034.28;;;11.04;42.15
21401;BME280;18038;50.166;18.908;2023-04-25T11:18:41;97039.16;;;11.25;42.07
21401;BME280;18038;50.166;18.908;2023-04-25T11:21:48;97044.00;;;11.53;41.81
21401;BME280;18038;50.166;18.908;2023-04-25T11:24:54;97043.84;;;11.48;41.33
21401;BME280;18038;50.166;18.908;2023-04-25T11:28:01;97055.06;;;11.20;41.01
21401;BME280;18038;50.166;18.908;2023-04-25T11:31:07;97051.38;;;11.21;40.12
21401;BME280;18038;50.166;18.908;2023-04-25T11:34:19;97047.78;;;11.09;41.29
21401;BME280;18038;50.166;18.908;2023-04-25T11:37:25;97043.22;;;10.91;41.13
21401;BME280;18038;50.166;18.908;2023-04-25T11:40:32;97038.28;;;10.94;40.95
21401;BME280;18038;50.166;18.908;2023-04-25T11:43:39;97040.88;;;11.01;41.16
21401;BME280;18038;50.166;18.908;2023-04-25T11:46:46;97048.59;;;11.09;42.06
21401;BME280;18038;50.166;18.908;2023-04-25T11:49:55;97042.72;;;10.82;42.41
21401;BME280;18038;50.166;18.908;2023-04-25T11:53:04;97050.31;;;11.04;41.83
21401;BME280;18038;50.166;18.908;2023-04-25T11:56:11;97041.25;;;11.05;41.88
21401;BME280;18038;50.166;18.908;2023-04-25T11:59:23;97046.44;;;11.00;42.44
21401;BME280;18038;50.166;18.908;2023-04-25T12:02:30;97040.81;;;11.08;42.91
21401;BME280;18038;50.166;18.908;2023-04-25T12:05:41;97043.94;;;11.05;42.58
21401;BME280;18038;50.166;18.908;2023-04-25T12:09:01;97041.25;;;11.05;42.98
21401;BME280;18038;50.166;18.908;2023-04-25T12:12:10;97044.03;;;10.73;43.32
21401;BME280;18038;50.166;18.908;2023-04-25T12:15:23;97036.44;;;10.70;44.20
21401;BME280;18038;50.166;18.908;2023-04-25T12:18:31;97045.00;;;10.54;44.32
21401;BME280;18038;50.166;18.908;2023-04-25T12:21:47;97041.31;;;10.55;44.53
21401;BME280;18038;50.166;18.908;2023-04-25T12:25:02;97038.41;;;10.56;43.67
21401;BME280;18038;50.166;18.908;2023-04-25T12:28:11;97048.78;;;10.71;44.12
21401;BME280;18038;50.166;18.908;2023-04-25T12:31:19;97048.16;;;11.12;43.88
21401;BME280;18038;50.166;18.908;2023-04-25T12:34:26;97049.78;;;11.50;44.69
21401;BME280;18038;50.166;18.908;2023-04-25T12:37:39;97049.56;;;11.33;42.48
21401;BME280;18038;50.166;18.908;2023-04-25T12:40:45;97053.13;;;11.09;43.34
21401;BME280;18038;50.166;18.908;2023-04-25T12:43:51;97050.69;;;11.07;42.62
21401;BME280;18038;50.166;18.908;2023-04-25T12:46:58;97039.78;;;10.65;43.43
21401;BME280;18038;50.166;18.908;2023-04-25T12:50:07;97036.47;;;10.88;43.64
21401;BME280;18038;50.166;18.908;2023-04-25T12:53:16;97033.97;;;10.93;43.19
21401;BME280;18038;50.166;18.908;2023-04-25T12:56:23;97042.44;;;11.09;43.73
21401;BME280;18038;50.166;18.908;2023-04-25T12:59:29;97035.63;;;10.94;42.08
21401;BME280;18038;50.166;18.908;2023-04-25T13:02:42;97033.34;;;10.48;42.89
21401;BME280;18038;50.166;18.908;2023-04-25T13:05:50;97029.72;;;10.36;43.11
21401;BME280;18038;50.166;18.908;2023-04-25T13:09:00;97026.19;;;10.67;43.44
21401;BME280;18038;50.166;18.908;2023-04-25T13:12:07;97026.03;;;11.05;42.42
21401;BME280;18038;50.166;18.908;2023-04-25T13:15:14;97026.19;;;11.29;42.50
21401;BME280;18038;50.166;18.908;2023-04-25T13:18:21;97024.38;;;11.41;43.84
21401;BME280;18038;50.166;18.908;2023-04-25T13:21:30;97030.16;;;11.56;42.20
21401;BME280;18038;50.166;18.908;2023-04-25T13:24:40;97026.41;;;11.46;42.92
21401;BME280;18038;50.166;18.908;2023-04-25T13:27:47;97030.53;;;11.60;41.91
21401;BME280;18038;50.166;18.908;2023-04-25T13:30:53;97032.06;;;11.19;42.07
21401;BME280;18038;50.166;18.908;2023-04-25T13:34:01;97025.06;;;10.81;42.50
21401;BME280;18038;50.166;18.908;2023-04-25T13:37:07;97018.53;;;10.95;42.27
21401;BME280;18038;50.166;18.908;2023-04-25T13:40:24;97023.66;;;11.34;41.89
21401;BME280;18038;50.166;18.908;2023-04-25T13:43:36;97020.84;;;11.10;42.29
21401;BME280;18038;50.166;18.908;2023-04-25T13:46:46;97018.75;;;11.31;41.88
21401;BME280;18038;50.166;18.908;2023-04-25T13:49:52;97021.97;;;11.39;41.60
21401;BME280;18038;50.166;18.908;2023-04-25T13:53:10;97020.25;;;11.27;42.05
21401;BME280;18038;50.166;18.908;2023-04-25T13:56:20;97032.00;;;11.26;42.82
21401;BME280;18038;50.166;18.908;2023-04-25T13:59:27;97028.53;;;11.55;41.58
21401;BME280;18038;50.166;18.908;2023-04-25T14:02:36;97027.09;;;11.90;41.73
21401;BME280;18038;50.166;18.908;2023-04-25T14:05:43;97032.91;;;11.87;41.12
21401;BME280;18038;50.166;18.908;2023-04-25T14:08:50;97033.75;;;11.50;41.04
21401;BME280;18038;50.166;18.908;2023-04-25T14:11:59;97017.22;;;12.02;41.65
21401;BME280;18038;50.166;18.908;2023-04-25T14:15:12;97026.03;;;12.33;40.77
21401;BME280;18038;50.166;18.908;2023-04-25T14:18:20;97021.31;;;12.04;40.91
21401;BME280;18038;50.166;18.908;2023-04-25T14:21:27;97017.16;;;12.20;40.96
21401;BME280;18038;50.166;18.908;2023-04-25T14:24:35;97031.09;;;11.69;41.40
21401;BME280;18038;50.166;18.908;2023-04-25T14:27:44;97025.84;;;12.04;41.60
21401;BME280;18038;50.166;18.908;2023-04-25T14:30:53;97024.75;;;11.81;41.28
21401;BME280;18038;50.166;18.908;2023-04-25T14:33:59;97030.41;;;11.73;41.81
21401;BME280;18038;50.166;18.908;2023-04-25T14:37:06;97026.22;;;11.77;41.54
21401;BME280;18038;50.166;18.908;2023-04-25T14:40:13;97021.28;;;11.93;41.27
21401;BME280;18038;50.166;18.908;2023-04-25T14:43:23;97022.03;;;12.12;41.76
21401;BME280;18038;50.166;18.908;2023-04-25T14:46:29;97025.78;;;12.22;40.84
21401;BME280;18038;50.166;18.908;2023-04-25T14:49:36;97031.34;;;12.21;40.77
21401;BME280;18038;50.166;18.908;2023-04-25T14:52:42;97025.63;;;12.05;41.27
21401;BME280;18038;50.166;18.908;2023-04-25T14:55:49;97026.72;;;12.16;41.47
21401;BME280;18038;50.166;18.908;2023-04-25T14:58:58;97024.56;;;12.07;40.20
21401;BME280;18038;50.166;18.908;2023-04-25T15:02:05;97028.91;;;11.59;41.36
21401;BME280;18038;50.166;18.908;2023-04-25T15:05:11;97026.75;;;11.31;41.68
21401;BME280;18038;50.166;18.908;2023-04-25T15:08:18;97023.94;;;11.44;41.40
21401;BME280;18038;50.166;18.908;2023-04-25T15:11:24;97027.59;;;11.13;42.42
21401;BME280;18038;50.166;18.908;2023-04-25T15:14:34;97023.09;;;10.70;43.46
21401;BME280;18038;50.166;18.908;2023-04-25T15:17:41;97028.81;;;10.48;44.30
21401;BME280;18038;50.166;18.908;2023-04-25T15:20:48;97030.47;;;10.49;44.94
21401;BME280;18038;50.166;18.908;2023-04-25T15:23:55;97034.88;;;10.37;44.40
21401;BME280;18038;50.166;18.908;2023-04-25T15:27:02;97034.59;;;10.45;44.30
21401;BME280;18038;50.166;18.908;2023-04-25T15:30:13;97037.19;;;10.77;43.97
21401;BME280;18038;50.166;18.908;2023-04-25T15:33:21;97046.53;;;10.68;44.29
21401;BME280;18038;50.166;18.908;2023-04-25T15:36:27;97038.81;;;10.60;44.46
21401;BME280;18038;50.166;18.908;2023-04-25T15:39:34;97042.53;;;10.27;45.36
21401;BME280;18038;50.166;18.908;2023-04-25T15:42:48;97048.56;;;10.16;45.29
21401;BME280;18038;50.166;18.908;2023-04-25T15:45:59;97048.47;;;10.29;45.75
21401;BME280;18038;50.166;18.908;2023-04-25T15:49:06;97039.66;;;10.54;45.15
21401;BME280;18038;50.166;18.908;2023-04-25T15:52:16;97049.22;;;10.68;45.33
21401;BME280;18038;50.166;18.908;2023-04-25T15:55:26;97046.59;;;10.61;45.04
21401;BME280;18038;50.166;18.908;2023-04-25T15:58:33;97047.84;;;10.59;45.14
21401;BME280;18038;50.166;18.908;2023-04-25T16:01:42;97045.69;;;10.49;44.56
21401;BME280;18038;50.166;18.908;2023-04-25T16:04:49;97041.03;;;10.38;44.43
21401;BME280;18038;50.166;18.908;2023-04-25T16:07:55;97050.25;;;10.35;44.71
21401;BME280;18038;50.166;18.908;2023-04-25T16:11:02;97042.50;;;10.59;44.88
21401;BME280;18038;50.166;18.908;2023-04-25T16:14:08;97054.94;;;10.46;44.69
21401;BME280;18038;50.166;18.908;2023-04-25T16:17:18;97051.03;;;10.49;45.11
21401;BME280;18038;50.166;18.908;2023-04-25T16:20:24;97054.38;;;10.38;45.20
21401;BME280;18038;50.166;18.908;2023-04-25T16:23:31;97063.75;;;10.15;45.36
21401;BME280;18038;50.166;18.908;2023-04-25T16:26:38;97056.66;;;10.27;45.75
21401;BME280;18038;50.166;18.908;2023-04-25T16:29:46;97062.50;;;10.18;45.64
21401;BME280;18038;50.166;18.908;2023-04-25T16:32:55;97057.78;;;9.88;45.69
21401;BME280;18038;50.166;18.908;2023-04-25T16:36:03;97070.44;;;9.93;46.04
21401;BME280;18038;50.166;18.908;2023-04-25T16:39:09;97065.81;;;9.75;46.12
21401;BME280;18038;50.166;18.908;2023-04-25T16:42:16;97060.34;;;9.63;46.21
21401;BME280;18038;50.166;18.908;2023-04-25T16:45:23;97057.41;;;9.78;46.03